createdAt,value
2018-05-10T00:00:11.259Z,62.48
2018-05-10T00:01:11.271Z,62.57
2018-05-10T00:02:11.267Z,62.57
2018-05-10T00:03:11.292Z,62.19
2018-05-10T00:04:11.284Z,62.09
2018-05-10T00:05:11.292Z,62.00
2018-05-10T00:06:11.300Z,62.29
2018-05-10T00:07:11.325Z,62.09
2018-05-10T00:08:11.317Z,62.29
2018-05-10T00:09:11.328Z,62.48
2018-05-10T00:10:11.324Z,62.48
2018-05-10T00:11:11.328Z,62.29
2018-05-10T00:12:11.336Z,62.29
2018-05-10T00:13:11.347Z,62.48
2018-05-10T00:14:11.352Z,62.48
2018-05-10T00:15:11.369Z,62.57
2018-05-10T00:16:11.364Z,62.87
2018-05-10T00:17:11.368Z,62.57
2018-05-10T00:18:11.376Z,62.00
2018-05-10T00:19:11.370Z,62.29
2018-05-10T00:20:11.448Z,62.19
2018-05-10T00:21:11.395Z,62.09
2018-05-10T00:22:11.399Z,61.90
2018-05-10T00:23:11.400Z,61.90
2018-05-10T00:24:11.477Z,62.48
2018-05-10T00:25:11.427Z,62.19
2018-05-10T00:26:11.446Z,62.19
2018-05-10T00:27:11.435Z,62.77
2018-05-10T00:28:11.462Z,62.67
2018-05-10T00:29:11.433Z,62.87
2018-05-10T00:30:11.446Z,62.87
2018-05-10T00:31:11.444Z,63.25
2018-05-10T00:32:11.465Z,63.15
2018-05-10T00:33:11.466Z,63.54
2018-05-10T00:34:11.464Z,63.25
2018-05-10T00:35:11.491Z,63.64
2018-05-10T00:36:11.488Z,63.44
2018-05-10T00:37:11.478Z,63.44
2018-05-10T00:38:11.491Z,64.21
2018-05-10T00:39:11.496Z,64.40
2018-05-10T00:40:11.500Z,63.41
2018-05-10T00:41:11.518Z,63.54
2018-05-10T00:42:11.515Z,63.06
2018-05-10T00:43:11.521Z,63.15
2018-05-10T00:44:11.523Z,63.25
2018-05-10T00:45:11.541Z,63.44
2018-05-10T00:46:11.546Z,63.06
2018-05-10T00:47:11.550Z,63.06
2018-05-10T00:48:11.558Z,63.64
2018-05-10T00:49:11.556Z,64.18
2018-05-10T00:50:11.571Z,64.28
2018-05-10T00:51:11.631Z,64.28
2018-05-10T00:52:11.582Z,64.37
2018-05-10T00:53:11.603Z,64.56
2018-05-10T00:54:11.587Z,64.47
2018-05-10T00:55:11.592Z,64.47
2018-05-10T00:56:11.654Z,64.37
2018-05-10T00:57:11.603Z,65.24
2018-05-10T00:58:11.615Z,65.24
2018-05-10T00:59:11.624Z,65.05
2018-05-10T01:00:11.618Z,65.05
2018-05-10T01:01:11.627Z,64.47
2018-05-10T01:02:11.631Z,64.66
2018-05-10T01:03:11.654Z,64.76
2018-05-10T01:04:11.662Z,64.66
2018-05-10T01:05:11.733Z,64.56
2018-05-10T01:06:11.658Z,64.47
2018-05-10T01:07:11.738Z,64.47
2018-05-10T01:08:11.765Z,64.56
2018-05-10T01:09:11.685Z,65.33
2018-05-10T01:10:11.679Z,65.24
2018-05-10T01:11:11.691Z,65.14
2018-05-10T01:12:11.693Z,65.24
2018-05-10T01:13:11.703Z,65.14
2018-05-10T01:14:11.702Z,64.56
2018-05-10T01:15:11.719Z,64.37
2018-05-10T01:16:11.724Z,65.24
2018-05-10T01:17:11.731Z,64.28
2018-05-10T01:18:12.476Z,64.76
2018-05-10T01:19:11.735Z,64.47
2018-05-10T01:20:11.739Z,64.28
2018-05-10T01:21:11.748Z,65.05
2018-05-10T01:22:11.748Z,65.05
2018-05-10T01:23:11.750Z,65.72
2018-05-10T01:24:11.862Z,64.76
2018-05-10T01:25:11.776Z,65.72
2018-05-10T01:26:11.773Z,65.63
2018-05-10T01:27:11.790Z,65.81
2018-05-10T01:28:11.782Z,65.72
2018-05-10T01:29:12.473Z,66.20
2018-05-10T01:30:11.880Z,66.39
2018-05-10T01:31:11.833Z,66.36
2018-05-10T01:32:11.815Z,66.17
2018-05-10T01:33:11.806Z,66.36
2018-05-10T01:34:11.818Z,66.84
2018-05-10T01:35:11.816Z,67.03
2018-05-10T01:36:11.830Z,67.61
2018-05-10T01:37:11.839Z,67.29
2018-05-10T01:38:11.832Z,67.32
2018-05-10T01:39:11.846Z,67.13
2018-05-10T01:40:11.851Z,67.32
2018-05-10T01:41:11.856Z,67.32
2018-05-10T01:42:11.860Z,67.61
2018-05-10T01:43:11.859Z,67.80
2018-05-10T01:44:11.876Z,67.32
2018-05-10T01:45:11.887Z,67.32
2018-05-10T01:46:11.880Z,67.32
2018-05-10T01:47:11.891Z,67.32
2018-05-10T01:48:11.896Z,67.13
2018-05-10T01:49:11.894Z,67.42
2018-05-10T01:50:11.900Z,67.22
2018-05-10T01:51:12.274Z,67.51
2018-05-10T01:52:12.398Z,67.32
2018-05-10T01:53:12.632Z,68.09
2018-05-10T01:54:11.923Z,67.03
2018-05-10T01:55:11.928Z,67.42
2018-05-10T01:56:11.942Z,67.32
2018-05-10T01:57:11.946Z,67.22
2018-05-10T01:58:11.954Z,67.32
2018-05-10T01:59:11.963Z,67.42
2018-05-10T02:00:11.967Z,67.51
2018-05-10T02:01:11.975Z,67.61
2018-05-10T02:02:11.982Z,67.61
2018-05-10T02:03:11.988Z,67.80
2018-05-10T02:04:11.985Z,67.99
2018-05-10T02:05:11.999Z,67.71
2018-05-10T02:06:11.994Z,67.71
2018-05-10T02:07:11.999Z,68.09
2018-05-10T02:08:12.012Z,68.19
2018-05-10T02:09:12.015Z,68.09
2018-05-10T02:10:12.017Z,68.29
2018-05-10T02:11:12.026Z,68.67
2018-05-10T02:12:12.032Z,68.63
2018-05-10T02:13:12.041Z,68.86
2018-05-10T02:14:12.043Z,69.12
2018-05-10T02:15:12.040Z,68.86
2018-05-10T02:16:12.989Z,68.73
2018-05-10T02:17:12.051Z,69.15
2018-05-10T02:18:12.053Z,69.31
2018-05-10T02:19:12.060Z,69.21
2018-05-10T02:20:12.065Z,69.98
2018-05-10T02:21:12.077Z,69.98
2018-05-10T02:22:12.115Z,69.98
2018-05-10T02:23:12.086Z,70.37
2018-05-10T02:24:12.093Z,70.07
2018-05-10T02:25:12.107Z,70.56
2018-05-10T02:26:12.102Z,70.27
2018-05-10T02:27:12.113Z,70.07
2018-05-10T02:28:12.118Z,70.46
2018-05-10T02:29:12.116Z,70.27
2018-05-10T02:30:12.119Z,70.56
2018-05-10T02:31:12.136Z,70.17
2018-05-10T02:32:12.134Z,70.75
2018-05-10T02:33:12.139Z,70.65
2018-05-10T02:34:12.151Z,70.46
2018-05-10T02:35:12.160Z,71.04
2018-05-10T02:36:12.159Z,70.65
2018-05-10T02:37:12.166Z,70.84
2018-05-10T02:38:12.169Z,70.94
2018-05-10T02:39:14.987Z,70.94
2018-05-10T02:40:12.183Z,70.84
2018-05-10T02:41:12.188Z,70.84
2018-05-10T02:42:12.188Z,70.56
2018-05-10T02:43:12.196Z,71.10
2018-05-10T02:44:12.199Z,71.29
2018-05-10T02:45:12.205Z,71.23
2018-05-10T02:46:12.206Z,71.48
2018-05-10T02:47:12.208Z,71.39
2018-05-10T02:48:12.220Z,71.33
2018-05-10T02:49:12.227Z,70.94
2018-05-10T02:50:12.224Z,71.14
2018-05-10T02:51:12.239Z,71.58
2018-05-10T02:52:12.237Z,71.96
2018-05-10T02:53:12.252Z,72.16
2018-05-10T02:54:12.251Z,72.64
2018-05-10T02:55:12.259Z,73.02
2018-05-10T02:56:12.255Z,72.73
2018-05-10T02:57:13.984Z,73.31
2018-05-10T02:58:12.279Z,72.83
2018-05-10T02:59:12.290Z,73.69
2018-05-10T03:00:12.291Z,73.98
2018-05-10T03:01:12.294Z,74.27
2018-05-10T03:02:12.318Z,74.27
2018-05-10T03:03:12.298Z,73.88
2018-05-10T03:04:12.304Z,74.37
2018-05-10T03:05:12.316Z,74.08
2018-05-10T03:06:12.316Z,74.46
2018-05-10T03:07:12.320Z,74.55
2018-05-10T03:08:12.324Z,74.65
2018-05-10T03:09:12.325Z,74.85
2018-05-10T03:10:12.337Z,74.65
2018-05-10T03:11:12.344Z,75.42
2018-05-10T03:12:13.999Z,75.32
2018-05-10T03:13:12.351Z,75.62
2018-05-10T03:14:12.349Z,75.23
2018-05-10T03:15:12.382Z,75.52
2018-05-10T03:16:12.369Z,75.81
2018-05-10T03:17:12.389Z,75.81
2018-05-10T03:18:12.381Z,75.90
2018-05-10T03:19:12.370Z,75.77
2018-05-10T03:20:12.395Z,76.06
2018-05-10T03:21:12.406Z,76.54
2018-05-10T03:22:12.393Z,76.34
2018-05-10T03:23:15.002Z,76.64
2018-05-10T03:24:12.397Z,76.54
2018-05-10T03:25:12.423Z,77.01
2018-05-10T03:26:12.411Z,76.92
2018-05-10T03:27:14.006Z,77.40
2018-05-10T03:28:12.421Z,77.40
2018-05-10T03:29:12.421Z,77.59
2018-05-10T03:30:12.437Z,77.40
2018-05-10T03:31:14.006Z,77.69
2018-05-10T03:32:12.445Z,77.50
2018-05-10T03:33:14.107Z,77.59
2018-05-10T03:34:12.449Z,77.59
2018-05-10T03:35:12.460Z,77.40
2018-05-10T03:36:12.470Z,77.59
2018-05-10T03:37:13.466Z,77.69
2018-05-10T03:38:12.475Z,77.59
2018-05-10T03:39:12.469Z,77.98
2018-05-10T03:40:14.011Z,77.98
2018-05-10T03:41:14.203Z,77.98
2018-05-10T03:42:12.491Z,78.17
2018-05-10T03:43:12.502Z,78.36
2018-05-10T03:44:14.009Z,78.45
2018-05-10T03:45:14.020Z,78.45
2018-05-10T03:46:14.015Z,78.27
2018-05-10T03:47:12.513Z,78.27
2018-05-10T03:48:14.514Z,78.65
2018-05-10T03:49:13.522Z,78.42
2018-05-10T03:50:12.538Z,78.32
2018-05-10T03:51:14.500Z,78.42
2018-05-10T03:52:12.544Z,78.61
2018-05-10T03:53:16.517Z,78.32
2018-05-10T03:54:24.512Z,78.42
2018-05-10T03:55:14.514Z,78.52
2018-05-10T03:56:16.512Z,78.52
2018-05-10T03:57:13.579Z,78.55
2018-05-10T03:58:15.507Z,78.52
2018-05-10T03:59:15.512Z,78.55
2018-05-10T04:00:15.522Z,78.42
2018-05-10T04:01:14.503Z,78.36
2018-05-10T04:02:18.517Z,78.75
2018-05-10T04:03:15.518Z,78.42
2018-05-10T04:04:12.600Z,78.65
2018-05-10T04:05:12.620Z,78.45
2018-05-10T04:06:13.595Z,78.45
2018-05-10T04:07:14.514Z,78.45
2018-05-10T04:08:12.617Z,78.65
2018-05-10T04:09:13.615Z,78.36
2018-05-10T04:10:14.519Z,78.65
2018-05-10T04:11:14.534Z,79.03
2018-05-10T04:12:12.638Z,79.03
2018-05-10T04:13:14.522Z,78.94
2018-05-10T04:14:15.537Z,79.22
2018-05-10T04:15:15.519Z,79.61
2018-05-10T04:16:18.518Z,79.80
2018-05-10T04:17:14.520Z,79.90
2018-05-10T04:18:12.663Z,79.61
2018-05-10T04:19:15.594Z,80.57
2018-05-10T04:20:12.674Z,80.57
2018-05-10T04:21:12.678Z,80.57
2018-05-10T04:22:12.679Z,80.19
2018-05-10T04:23:15.534Z,80.38
2018-05-10T04:24:13.679Z,80.09
2018-05-10T04:25:12.707Z,79.99
2018-05-10T04:26:12.703Z,79.90
2018-05-10T04:27:12.708Z,79.99
2018-05-10T04:28:12.706Z,80.57
2018-05-10T04:29:14.524Z,80.47
2018-05-10T04:30:12.708Z,79.90
2018-05-10T04:31:12.719Z,80.38
2018-05-10T04:32:14.515Z,79.90
2018-05-10T04:33:13.735Z,79.90
2018-05-10T04:34:13.747Z,79.42
2018-05-10T04:35:14.528Z,79.52
2018-05-10T04:36:15.513Z,79.84
2018-05-10T04:37:12.772Z,79.71
2018-05-10T04:38:14.524Z,79.84
2018-05-10T04:39:12.758Z,79.22
2018-05-10T04:40:20.518Z,79.84
2018-05-10T04:41:14.532Z,79.61
2018-05-10T04:42:14.605Z,79.36
2018-05-10T04:43:14.519Z,79.71
2018-05-10T04:44:12.791Z,79.17
2018-05-10T04:45:16.526Z,79.46
2018-05-10T04:46:24.529Z,79.36
2018-05-10T04:47:18.535Z,79.55
